AirNav   Air Wisconsin Up To $57,000 Bonus
 
 1052 users online  

2TX3 La Fonda Ranch Airport
Brackettville, Texas, USA

GOING TO BRACKETTVILLE?


FAA INFORMATION EFFECTIVE 04 NOVEMBER 2021

Location

FAA Identifier: 2TX3
Lat/Long: 29-13-00.8500N 100-37-01.3040W
29-13.014167N 100-37.021733W
29.2169028,-100.6170289
(estimated)
Elevation: 1020 ft. / 311 m (estimated)
Variation: 08E (1985)
From city: 12 miles SW of BRACKETTVILLE, TX
Time zone: UTC -5 (UTC -6 during Standard Time)
Zip code: 78832

Airport Operations

Airport use: Private use. Permission required prior to landing
Activation date: 07/1981
Control tower: no
ARTCC: HOUSTON CENTER
FSS: SAN ANGELO FLIGHT SERVICE STATION
Attendance: CONTINUOUS
Wind indicator: yes
Segmented circle: no
Lights: ACTVT MIRL RY 18/36- 123.0.
Beacon: white-green (lighted land airport)
ACTVT ROTG BCN - 123.0.

Airport Communications

WX ASOS at DRT (19 nm NW): 118.525 (830-771-6251)

Nearby radio navigation aids

VOR radial/distance  VOR name  Freq  Var
DLFr130/11.8LAUGHLIN VORTAC114.4007E

 
NDB name  Hdg/Dist  Freq  Var  ID
LA FONDA RANCHat field26909EBRX -... .-. -..-
SPOFFORD285/10.835608EPFO .--. ..-. ---
CHAPARROSA RANCH297/38.538505ECPZ -.-. .--. --..

Airport Services

Runway Information

Runway 18/36

Dimensions: 5280 x 50 ft. / 1609 x 15 m
Surface: asphalt
Runway edge lights: medium intensity
RUNWAY 18  RUNWAY 36
Traffic pattern: leftleft

Airport Ownership and Management from official FAA records

Ownership: Privately-owned
Owner: WALTER UMPHREY
P.O. BOX 4905
BEAUMONT, TX 77704
Phone 409-838-8848
Manager: PAT RADCLIFF
501 MEADOWGREEN
PORT NECHES, TX 77651
Phone 409-727-2372

Airport Operational Statistics

Aircraft based on the field: 2
Helicopters: 2
    

Additional Remarks

FOR CD CTC LAUGHLIN APCH AT 830-298-4350, WHEN APCH CLSD CTC HOUSTON ARTCC AT 281-230-5622.

Instrument Procedures

There are no published instrument procedures at 2TX3.

Some nearby airports with instrument procedures:

KDLF - Laughlin AFB Airport (12 nm NW)
KDRT - Del Rio International Airport (19 nm NW)
5T9 - Maverick County Memorial International Airport (22 nm S)
KUVA - Garner Field Airport (46 nm E)
KECU - Edwards County Airport (50 nm NE)
 
Loc | Ops | Rwys | IFR | FBO | Links
Com | Nav | Svcs | Stats | Notes
Area around 2TX3 (La Fonda Ranch Airport)
 
Road maps at: MapQuest Bing Google
 
Aerial photo
No photo
 
Sectional chart

 
Airport distance calculator
Flying to La Fonda Ranch Airport? Find the distance to fly.

From to 2TX3

Sunrise and sunset
Times for 30-Nov-2021
 Local
(UTC-6)
 Zulu
(UTC)
Morning civil twilight06:5412:54
Sunrise07:1913:19
Sunset17:4323:43
Evening civil twilight18:0900:09

Current date and time
Zulu (UTC)  01-Dec-2021 03:40:17
Local (UTC-6)  30-Nov-2021 21:40:17
 
METAR
KT70 
10nm SE 
010258Z AUTO 11004KT 10SM CLR 15/11 A3003 RMK AO2 SLP165 T01500109 52015
KDLF 
12nm NW 
010256Z AUTO 10004KT 10SM CLR 16/11 A3009 RMK AO2 SLP186 T01550109 52016 TSNO $
KDRT 
18nm NW 
010253Z AUTO 09005KT 10SM CLR 19/11 A3008 RMK AO2 SLP184 T01940106 51016
TAF
KDLF 
12nm NW 
302330Z 3023/0202 13010KT 9999 FEW270 QNH3003INS BECMG 0108/0109 12009KT 9999 SCT010 BKN015 QNH3008INS BECMG 0110/0111 VRB06KT 8000 BR BKN008 QNH3009INS TEMPO 0112/0115 4800 BR BKN002 BECMG 0115/0116 14012KT 9999 NSW BKN010 BKN018 QNH3016INS BECMG 0117/0118 14012KT 9999 SCT015 BKN020 QNH3012INS BECMG 0119/0120 VRB06KT 9999 FEW025 QNH3011INS TX23/0120Z TN12/0112Z LAST NO AMDS AFT 3023 NEXT 0112
KDRT 
18nm NW 
301739Z 3018/0118 13009KT P6SM SCT250 FM010600 10004KT P6SM SCT250 FM011500 15004KT P6SM BKN250
NOTAMs
Click for the latest NOTAMs
NOTAMs are issued by the DoD/FAA and will open in a separate window not controlled by AirNav.

 

 
 

Would you like to see your business listed on this page?

 If your business provides an interesting product or service to pilots, flight crews, aircraft, or users of the La Fonda Ranch Airport, you should consider listing it here.  To start the listing process, click on the button below
 
Add a business
 

Other Pages about La Fonda Ranch Airport

Update a link
 
Copyright © AirNav, LLC. All rights reserved. Privacy Policy  Contact